Time;durP1;ratioP1;P1;durP2;ratioP2;P2;SDS_P1;SDS_P2;PMS_P1;PMS_P2;Temp;Humidity;BMP_temperature;BMP_pressure;BME280_temperature;BME280_humidity;BME280_pressure;Samples;Min_cycle;Max_cycle;Signal;HPM_P1;HPM_P2
2024/02/29 06:00:46;;;;;;;114.33;38.37;;;;;;;;;;5838453;23;20579;-77
2024/02/29 06:03:12;;;;;;;139.47;38.77;;;;;;;;;;5035115;28;20414;-78
2024/02/29 06:05:38;;;;;;;118.80;38.40;;;;;;;;;;5033249;28;20418;-78
2024/02/29 06:08:04;;;;;;;124.60;38.33;;;;;;;;;;5033598;28;20916;-78
2024/02/29 06:10:30;;;;;;;124.20;38.17;;;;;;;;;;5034548;28;20413;-78
2024/02/29 06:12:56;;;;;;;117.73;41.03;;;;;;;;;;5035005;28;20904;-79
2024/02/29 06:15:22;;;;;;;117.50;39.60;;;;;;;;;;5043072;28;20397;-78
2024/02/29 06:17:49;;;;;;;104.10;33.90;;;;;;;;;;5043195;28;20464;-79
2024/02/29 06:20:15;;;;;;;117.57;36.53;;;;;;;;;;5039109;28;20902;-79
2024/02/29 06:22:42;;;;;;;114.80;36.83;;;;;;;;;;5038716;28;20445;-79
2024/02/29 06:25:09;;;;;;;123.17;39.23;;;;;;;;;;5037928;28;20471;-80
2024/02/29 06:27:36;;;;;;;109.73;38.53;;;;;;;;;;5038373;28;20413;-79
2024/02/29 06:30:02;;;;;;;109.67;36.93;;;;;;;;;;5038119;28;20428;-79
2024/02/29 06:32:28;;;;;;;112.33;36.70;;;;;;;;;;5038944;28;20797;-79
2024/02/29 06:34:54;;;;;;;114.37;38.40;;;;;;;;;;5038057;28;20421;-80
2024/02/29 06:37:20;;;;;;;117.70;36.60;;;;;;;;;;5039202;28;20452;-79
2024/02/29 06:39:46;;;;;;;95.53;33.50;;;;;;;;;;5040925;28;20428;-79
2024/02/29 06:42:12;;;;;;;108.47;35.13;;;;;;;;;;5037237;28;20913;-78
2024/02/29 06:44:38;;;;;;;108.10;37.43;;;;;;;;;;5036948;28;20413;-78
2024/02/29 06:47:04;;;;;;;97.43;38.73;;;;;;;;;;5038550;28;20448;-78
2024/02/29 06:49:30;;;;;;;115.17;36.87;;;;;;;;;;5039171;28;20409;-78
2024/02/29 06:51:56;;;;;;;128.80;41.37;;;;;;;;;;5045710;28;20436;-78
2024/02/29 06:54:22;;;;;;;90.50;34.00;;;;;;;;;;5046567;28;20452;-78
2024/02/29 06:56:48;;;;;;;86.83;33.70;;;;;;;;;;5038883;28;20460;-78
2024/02/29 06:59:14;;;;;;;85.33;34.53;;;;;;;;;;5038071;28;20424;-78
2024/02/29 07:01:40;;;;;;;79.97;31.20;;;;;;;;;;5036544;28;20453;-78
2024/02/29 07:04:07;;;;;;;81.33;30.30;;;;;;;;;;5046816;28;20410;-77
2024/02/29 07:06:34;;;;;;;82.63;30.90;;;;;;;;;;5050171;28;20459;-79
2024/02/29 07:09:01;;;;;;;70.87;27.97;;;;;;;;;;5037351;28;20463;-78
2024/02/29 07:11:28;;;;;;;66.80;27.67;;;;;;;;;;5038331;28;20448;-78
2024/02/29 07:13:54;;;;;;;67.77;25.67;;;;;;;;;;5037599;28;20971;-78
2024/02/29 07:16:20;;;;;;;69.30;27.27;;;;;;;;;;5038006;28;20533;-78
2024/02/29 07:18:46;;;;;;;71.97;25.77;;;;;;;;;;5041770;28;20409;-78
2024/02/29 07:21:12;;;;;;;70.13;27.60;;;;;;;;;;5038037;28;20452;-78
2024/02/29 07:23:38;;;;;;;65.20;27.67;;;;;;;;;;5037731;28;20415;-78
2024/02/29 07:26:04;;;;;;;71.73;31.10;;;;;;;;;;5038258;28;20868;-78
2024/02/29 07:28:31;;;;;;;67.80;28.13;;;;;;;;;;5036634;28;20470;-78
2024/02/29 07:30:57;;;;;;;77.10;28.73;;;;;;;;;;5037598;28;20512;-77
2024/02/29 07:33:24;;;;;;;73.43;27.43;;;;;;;;;;5038719;28;20436;-77
2024/02/29 07:35:50;;;;;;;68.07;27.73;;;;;;;;;;5046106;28;20449;-75
2024/02/29 07:38:16;;;;;;;71.00;27.93;;;;;;;;;;5040834;28;20416;-77
2024/02/29 07:40:42;;;;;;;70.83;27.13;;;;;;;;;;5039854;28;20428;-77
2024/02/29 07:43:09;;;;;;;71.37;28.63;;;;;;;;;;5035385;28;20409;-77
2024/02/29 07:45:36;;;;;;;63.03;27.30;;;;;;;;;;5036108;28;20754;-77
2024/02/29 07:48:02;;;;;;;63.33;25.57;;;;;;;;;;5038049;28;20424;-78
2024/02/29 07:50:28;;;;;;;56.63;24.27;;;;;;;;;;5049708;28;20452;-77
2024/02/29 07:52:54;;;;;;;63.27;26.23;;;;;;;;;;5036625;28;21033;-77
2024/02/29 07:55:20;;;;;;;60.33;22.10;;;;;;;;;;5043619;28;20427;-77
2024/02/29 07:57:46;;;;;;;69.90;26.43;;;;;;;;;;5057855;28;20475;-77
2024/02/29 08:00:13;;;;;;;47.20;23.60;;;;;;;;;;5054715;28;20448;-77
2024/02/29 08:02:46;;;;;;;55.87;22.33;;;;;;;;;;5054012;28;20438;-78
2024/02/29 08:05:12;;;;;;;54.77;23.27;;;;;;;;;;5057472;28;20419;-78
2024/02/29 08:07:38;;;;;;;51.53;22.43;;;;;;;;;;5043612;28;20424;-78
2024/02/29 08:10:04;;;;;;;58.20;22.80;;;;;;;;;;5035746;28;20897;-77
2024/02/29 08:12:30;;;;;;;44.20;21.40;;;;;;;;;;5054886;28;20436;-79
2024/02/29 08:14:57;;;;;;;52.93;21.40;;;;;;;;;;5059441;28;20405;-78
2024/02/29 08:17:26;;;;;;;48.17;21.13;;;;;;;;;;5047273;28;20472;-78
2024/02/29 08:19:52;;;;;;;47.67;20.97;;;;;;;;;;5034761;28;20417;-78
2024/02/29 08:22:18;;;;;;;39.90;19.20;;;;;;;;;;5040123;28;20575;-78
2024/02/29 08:24:44;;;;;;;45.80;21.70;;;;;;;;;;5044302;28;20440;-78
2024/02/29 08:27:10;;;;;;;45.33;21.27;;;;;;;;;;5043176;28;20408;-78
2024/02/29 08:29:36;;;;;;;44.40;21.03;;;;;;;;;;5035486;28;20424;-78
2024/02/29 08:32:02;;;;;;;52.17;21.67;;;;;;;;;;5036111;28;20770;-79
2024/02/29 08:34:28;;;;;;;41.60;21.40;;;;;;;;;;5037548;28;20854;-80
2024/02/29 08:36:54;;;;;;;51.27;21.57;;;;;;;;;;5037442;28;20988;-78
2024/02/29 08:39:20;;;;;;;41.20;20.03;;;;;;;;;;5035593;28;20471;-78
2024/02/29 08:41:47;;;;;;;49.13;21.43;;;;;;;;;;5034963;28;20440;-78
2024/02/29 08:44:15;;;;;;;39.90;20.83;;;;;;;;;;5037787;28;20421;-79
2024/02/29 08:46:42;;;;;;;50.60;22.27;;;;;;;;;;5041416;28;20417;-78
2024/02/29 08:49:07;;;;;;;45.03;23.20;;;;;;;;;;5039039;28;20915;-78
2024/02/29 08:51:34;;;;;;;54.03;21.50;;;;;;;;;;5038980;28;20518;-78
2024/02/29 08:54:00;;;;;;;61.80;23.10;;;;;;;;;;5037368;28;20413;-78
2024/02/29 08:56:25;;;;;;;52.00;23.77;;;;;;;;;;5041781;28;20464;-78
2024/02/29 08:58:51;;;;;;;54.67;24.10;;;;;;;;;;5040317;28;20418;-78
2024/02/29 09:01:19;;;;;;;50.60;22.70;;;;;;;;;;5049757;28;20455;-77
2024/02/29 09:03:44;;;;;;;54.23;23.70;;;;;;;;;;5042693;28;20512;-79
2024/02/29 09:06:10;;;;;;;49.23;21.70;;;;;;;;;;5042281;28;20661;-79
2024/02/29 09:08:36;;;;;;;45.47;20.37;;;;;;;;;;5041509;28;20424;-79
2024/02/29 09:11:03;;;;;;;51.63;22.60;;;;;;;;;;5039244;28;20429;-78
2024/02/29 09:13:29;;;;;;;51.53;23.23;;;;;;;;;;5041853;28;20464;-78
2024/02/29 09:15:56;;;;;;;53.87;24.93;;;;;;;;;;5042669;28;20449;-78
2024/02/29 09:18:22;;;;;;;55.00;22.97;;;;;;;;;;5042982;28;20420;-78
2024/02/29 09:20:48;;;;;;;58.57;23.87;;;;;;;;;;5040025;28;20478;-78
2024/02/29 09:23:14;;;;;;;52.57;23.03;;;;;;;;;;5037969;28;20791;-78
2024/02/29 09:25:40;;;;;;;57.03;24.07;;;;;;;;;;5038703;28;20753;-79
2024/02/29 09:28:06;;;;;;;54.80;24.20;;;;;;;;;;5040362;28;20417;-78
2024/02/29 09:30:32;;;;;;;57.73;24.07;;;;;;;;;;5037275;28;20911;-78
2024/02/29 09:32:58;;;;;;;59.93;24.70;;;;;;;;;;5038104;28;20915;-78
2024/02/29 09:35:25;;;;;;;61.07;22.27;;;;;;;;;;5036879;28;20424;-79
2024/02/29 09:37:51;;;;;;;54.73;24.43;;;;;;;;;;5036648;28;20472;-78
2024/02/29 09:40:20;;;;;;;54.67;24.30;;;;;;;;;;5034461;28;20432;-77
2024/02/29 09:42:47;;;;;;;56.53;22.83;;;;;;;;;;5035885;28;20405;-78
2024/02/29 09:45:14;;;;;;;51.87;22.37;;;;;;;;;;5035698;28;20768;-78
2024/02/29 09:47:43;;;;;;;54.43;23.63;;;;;;;;;;5036462;28;20494;-77
2024/02/29 09:50:09;;;;;;;59.47;26.80;;;;;;;;;;5039026;28;20409;-78
2024/02/29 09:52:38;;;;;;;56.63;23.43;;;;;;;;;;5038426;28;20449;-78
2024/02/29 09:55:05;;;;;;;54.13;23.87;;;;;;;;;;5042235;28;20844;-78
2024/02/29 09:57:34;;;;;;;58.63;23.67;;;;;;;;;;5044393;28;20511;-78
2024/02/29 10:00:01;;;;;;;52.40;23.40;;;;;;;;;;5046412;28;20414;-78
2024/02/29 10:02:27;;;;;;;49.30;22.67;;;;;;;;;;5045268;28;20937;-79
2024/02/29 10:04:53;;;;;;;57.87;24.00;;;;;;;;;;5045158;28;20409;-78
2024/02/29 10:07:19;;;;;;;55.63;23.87;;;;;;;;;;5045274;28;20472;-78
2024/02/29 10:09:46;;;;;;;50.80;22.27;;;;;;;;;;5047019;28;20920;-78
2024/02/29 10:12:18;;;;;;;52.10;23.30;;;;;;;;;;5037785;28;20490;-78
2024/02/29 10:14:45;;;;;;;68.33;25.10;;;;;;;;;;5035345;28;20513;-81
2024/02/29 10:17:11;;;;;;;56.07;25.20;;;;;;;;;;5042711;28;20938;-80
2024/02/29 10:19:40;;;;;;;50.57;24.30;;;;;;;;;;5042490;28;20484;-79
2024/02/29 10:22:07;;;;;;;53.40;23.47;;;;;;;;;;5036705;28;20429;-77
2024/02/29 10:24:33;;;;;;;55.90;25.37;;;;;;;;;;5035556;28;20419;-77
2024/02/29 10:27:03;;;;;;;58.63;24.33;;;;;;;;;;5034759;28;20445;-78
2024/02/29 10:29:29;;;;;;;49.73;24.13;;;;;;;;;;5034573;28;20421;-78
2024/02/29 10:31:58;;;;;;;55.70;24.37;;;;;;;;;;5040116;28;20440;-78
2024/02/29 10:34:25;;;;;;;45.50;22.43;;;;;;;;;;5045385;28;20409;-78
2024/02/29 10:36:51;;;;;;;59.27;24.83;;;;;;;;;;5043756;28;20544;-78
2024/02/29 10:39:16;;;;;;;59.57;25.67;;;;;;;;;;5040790;28;20413;-78
2024/02/29 10:41:48;;;;;;;48.80;21.80;;;;;;;;;;5038073;28;20435;-79
2024/02/29 10:44:15;;;;;;;50.07;23.67;;;;;;;;;;5037453;28;20417;-78
2024/02/29 10:46:42;;;;;;;55.20;23.37;;;;;;;;;;5035656;28;20413;-79
2024/02/29 10:49:34;;;;;;;54.47;22.70;;;;;;;;;;5034289;28;20436;-79
2024/02/29 10:52:09;;;;;;;55.20;23.70;;;;;;;;;;5035830;28;20476;-79
2024/02/29 10:54:41;;;;;;;49.70;23.53;;;;;;;;;;5038920;28;20443;-79
2024/02/29 10:57:09;;;;;;;54.10;25.60;;;;;;;;;;5038813;28;20467;-79
2024/02/29 10:59:37;;;;;;;61.10;24.60;;;;;;;;;;5039164;28;20511;-79
2024/02/29 11:02:04;;;;;;;61.17;25.17;;;;;;;;;;5039228;28;20451;-79
2024/02/29 11:04:30;;;;;;;58.93;22.87;;;;;;;;;;5045771;28;20399;-78
2024/02/29 11:06:56;;;;;;;49.57;23.33;;;;;;;;;;5053515;28;20406;-79
2024/02/29 11:09:26;;;;;;;45.20;22.00;;;;;;;;;;5049544;28;20416;-79
2024/02/29 11:12:09;;;;;;;45.27;22.70;;;;;;;;;;5040115;28;20936;-79
2024/02/29 11:14:38;;;;;;;48.50;22.87;;;;;;;;;;5038900;28;20457;-79
2024/02/29 11:17:07;;;;;;;49.50;22.90;;;;;;;;;;5039477;28;20484;-79
2024/02/29 11:19:33;;;;;;;46.10;21.60;;;;;;;;;;5040511;28;20467;-79
2024/02/29 11:22:09;;;;;;;42.43;21.27;;;;;;;;;;5039736;28;20478;-80
2024/02/29 11:24:40;;;;;;;39.07;19.30;;;;;;;;;;5039196;28;20471;-78
2024/02/29 11:27:13;;;;;;;43.83;20.40;;;;;;;;;;5036823;28;20447;-78
2024/02/29 11:29:39;;;;;;;37.73;19.23;;;;;;;;;;5037703;28;20788;-78
2024/02/29 11:32:05;;;;;;;40.90;18.07;;;;;;;;;;5040459;28;20448;-77
2024/02/29 11:34:31;;;;;;;42.37;19.60;;;;;;;;;;5052011;28;20420;-77
2024/02/29 11:36:58;;;;;;;38.03;19.03;;;;;;;;;;5049177;28;20966;-78
2024/02/29 11:39:24;;;;;;;31.13;17.47;;;;;;;;;;5048020;28;20421;-78
2024/02/29 11:41:50;;;;;;;36.23;18.10;;;;;;;;;;5044983;28;20876;-78
2024/02/29 11:44:16;;;;;;;35.43;17.70;;;;;;;;;;5039052;28;20738;-80
2024/02/29 11:46:46;;;;;;;35.27;16.67;;;;;;;;;;5035401;28;20908;-78
2024/02/29 11:49:15;;;;;;;33.50;17.20;;;;;;;;;;5036933;28;20410;-78
2024/02/29 11:51:41;;;;;;;28.57;14.30;;;;;;;;;;5038547;28;20449;-79
2024/02/29 11:54:09;;;;;;;30.37;14.63;;;;;;;;;;5038895;28;20481;-78
2024/02/29 11:56:35;;;;;;;30.57;15.00;;;;;;;;;;5036488;28;20464;-78
2024/02/29 11:59:02;;;;;;;27.50;14.00;;;;;;;;;;5038372;28;20445;-78
2024/02/29 12:01:28;;;;;;;28.30;14.43;;;;;;;;;;5037453;28;20441;-78
2024/02/29 12:03:55;;;;;;;32.80;15.33;;;;;;;;;;5037607;28;20915;-78
2024/02/29 12:06:21;;;;;;;31.00;13.87;;;;;;;;;;5041930;28;20413;-78
2024/02/29 12:08:47;;;;;;;33.33;15.57;;;;;;;;;;5043105;28;20413;-79
2024/02/29 12:11:13;;;;;;;36.77;15.17;;;;;;;;;;5054464;28;20452;-78
2024/02/29 12:13:39;;;;;;;36.83;18.47;;;;;;;;;;5051291;28;20409;-78
2024/02/29 12:16:05;;;;;;;31.83;16.67;;;;;;;;;;5040866;28;20452;-78
2024/02/29 12:18:34;;;;;;;29.20;15.77;;;;;;;;;;5039981;28;20425;-78
2024/02/29 12:21:00;;;;;;;32.43;16.43;;;;;;;;;;5040693;28;20459;-78
2024/02/29 12:23:28;;;;;;;36.60;15.87;;;;;;;;;;5035981;28;20409;-78
2024/02/29 12:25:54;;;;;;;34.23;16.33;;;;;;;;;;5037335;28;20810;-78
2024/02/29 12:28:20;;;;;;;31.10;13.83;;;;;;;;;;5034471;28;20475;-78
2024/02/29 12:30:49;;;;;;;35.17;16.07;;;;;;;;;;5033886;28;20511;-78
2024/02/29 12:33:16;;;;;;;27.47;15.20;;;;;;;;;;5034566;28;20413;-78
2024/02/29 12:35:44;;;;;;;28.10;13.80;;;;;;;;;;5035200;28;20417;-78
2024/02/29 12:38:14;;;;;;;26.20;13.43;;;;;;;;;;5035417;28;20420;-78
2024/02/29 12:40:40;;;;;;;26.23;12.50;;;;;;;;;;5035265;28;20440;-78
2024/02/29 12:43:06;;;;;;;22.80;11.80;;;;;;;;;;5034584;28;20409;-78
2024/02/29 12:45:32;;;;;;;25.30;12.60;;;;;;;;;;5035075;28;20413;-78
2024/02/29 12:47:59;;;;;;;23.57;12.47;;;;;;;;;;5035617;28;20421;-78
2024/02/29 12:50:25;;;;;;;26.73;11.20;;;;;;;;;;5034015;28;20494;-78
2024/02/29 12:52:54;;;;;;;21.30;10.50;;;;;;;;;;5034095;28;20421;-78
2024/02/29 12:55:22;;;;;;;27.07;10.53;;;;;;;;;;5036232;28;20448;-78
2024/02/29 12:57:49;;;;;;;21.00;10.67;;;;;;;;;;5035909;28;20452;-78
2024/02/29 13:00:19;;;;;;;28.50;13.10;;;;;;;;;;5034024;28;20421;-78
2024/02/29 13:02:45;;;;;;;24.07;12.10;;;;;;;;;;5037766;28;20414;-78
2024/02/29 13:05:11;;;;;;;26.47;12.30;;;;;;;;;;5040037;28;20496;-77
2024/02/29 13:07:38;;;;;;;24.87;11.87;;;;;;;;;;5044226;28;20420;-77
2024/02/29 13:10:05;;;;;;;22.60;9.47;;;;;;;;;;5053604;28;20421;-77
2024/02/29 13:12:31;;;;;;;17.23;10.10;;;;;;;;;;5053404;28;20532;-78
2024/02/29 13:14:57;;;;;;;22.50;11.10;;;;;;;;;;5051810;28;20555;-78
2024/02/29 13:17:23;;;;;;;18.57;9.27;;;;;;;;;;5036025;28;20454;-78
2024/02/29 13:19:49;;;;;;;20.40;9.57;;;;;;;;;;5033316;28;20421;-78
2024/02/29 13:22:15;;;;;;;23.70;11.30;;;;;;;;;;5034159;28;20444;-78
2024/02/29 13:24:43;;;;;;;22.60;10.10;;;;;;;;;;5032552;28;20826;-78
2024/02/29 13:27:09;;;;;;;34.50;11.47;;;;;;;;;;5033378;28;20832;-78
2024/02/29 13:29:35;;;;;;;19.23;10.43;;;;;;;;;;5033991;28;20558;-78
2024/02/29 13:32:00;;;;;;;28.97;11.97;;;;;;;;;;5033426;28;20441;-78
2024/02/29 13:34:26;;;;;;;21.17;10.27;;;;;;;;;;5034998;28;20428;-78
2024/02/29 13:36:52;;;;;;;25.50;12.07;;;;;;;;;;5036064;28;20548;-78
2024/02/29 13:39:18;;;;;;;24.90;12.07;;;;;;;;;;5034447;28;20911;-78
2024/02/29 13:41:45;;;;;;;21.37;10.77;;;;;;;;;;5034369;28;20436;-78
2024/02/29 13:44:11;;;;;;;26.70;9.80;;;;;;;;;;5033865;28;20471;-78
2024/02/29 13:46:37;;;;;;;31.50;12.10;;;;;;;;;;5034015;28;20413;-78
2024/02/29 13:49:03;;;;;;;24.37;11.07;;;;;;;;;;5032140;28;20421;-78
2024/02/29 13:51:29;;;;;;;22.83;11.93;;;;;;;;;;5033578;28;20436;-78
2024/02/29 13:53:55;;;;;;;22.73;11.70;;;;;;;;;;5032391;28;20511;-78
2024/02/29 13:56:22;;;;;;;24.27;10.80;;;;;;;;;;5033381;28;20492;-78
2024/02/29 13:58:48;;;;;;;23.30;11.77;;;;;;;;;;5034487;28;20417;-78
2024/02/29 14:01:15;;;;;;;31.40;11.23;;;;;;;;;;5033946;28;21113;-78
2024/02/29 14:03:42;;;;;;;23.60;11.00;;;;;;;;;;5032343;28;20458;-78
2024/02/29 14:06:08;;;;;;;25.30;11.57;;;;;;;;;;5038249;28;20425;-78
2024/02/29 14:08:34;;;;;;;25.13;11.83;;;;;;;;;;5038019;28;20405;-78
2024/02/29 14:11:00;;;;;;;22.40;11.10;;;;;;;;;;5032556;28;20445;-78
2024/02/29 14:13:26;;;;;;;26.87;11.57;;;;;;;;;;5033219;28;20416;-78
2024/02/29 14:15:52;;;;;;;26.37;11.10;;;;;;;;;;5033210;28;20417;-78
2024/02/29 14:18:18;;;;;;;23.70;11.87;;;;;;;;;;5033361;28;20452;-78
2024/02/29 14:20:44;;;;;;;29.50;13.13;;;;;;;;;;5033637;28;20437;-78
2024/02/29 14:23:10;;;;;;;27.93;10.47;;;;;;;;;;5033998;28;20826;-78
2024/02/29 14:25:36;;;;;;;23.03;11.50;;;;;;;;;;5032497;28;20410;-78
2024/02/29 14:28:02;;;;;;;28.03;13.03;;;;;;;;;;5033129;28;20893;-78
2024/02/29 14:30:29;;;;;;;24.10;12.50;;;;;;;;;;5034519;28;20944;-79
2024/02/29 14:32:54;;;;;;;30.30;13.33;;;;;;;;;;5033325;28;20859;-78
2024/02/29 14:35:20;;;;;;;22.10;10.80;;;;;;;;;;5032974;28;20428;-78
2024/02/29 14:37:46;;;;;;;28.57;12.70;;;;;;;;;;5031880;28;20498;-78
2024/02/29 14:40:13;;;;;;;29.07;14.80;;;;;;;;;;5031966;28;20417;-78
2024/02/29 14:42:39;;;;;;;23.13;12.57;;;;;;;;;;5032933;28;20433;-78
2024/02/29 14:45:06;;;;;;;29.90;13.13;;;;;;;;;;5035302;28;20532;-78
2024/02/29 14:47:32;;;;;;;30.50;12.73;;;;;;;;;;5034276;28;20452;-78
2024/02/29 14:49:58;;;;;;;31.03;14.70;;;;;;;;;;5032645;28;20412;-78
2024/02/29 14:52:26;;;;;;;29.63;14.93;;;;;;;;;;5032369;28;20437;-78
2024/02/29 14:54:52;;;;;;;33.70;15.27;;;;;;;;;;5031847;28;20428;-77
2024/02/29 14:57:18;;;;;;;28.90;13.20;;;;;;;;;;5046818;28;20835;-78
2024/02/29 14:59:44;;;;;;;25.67;13.53;;;;;;;;;;5034135;28;20893;-78
2024/02/29 15:02:11;;;;;;;27.67;13.10;;;;;;;;;;5032975;28;20782;-78
2024/02/29 15:04:37;;;;;;;27.37;12.73;;;;;;;;;;5034352;28;20496;-78
2024/02/29 15:07:03;;;;;;;41.37;13.93;;;;;;;;;;5033433;28;20503;-78
2024/02/29 15:09:29;;;;;;;30.03;13.67;;;;;;;;;;5046635;28;20401;-78
2024/02/29 15:11:55;;;;;;;30.17;13.93;;;;;;;;;;5034316;28;20436;-78
2024/02/29 15:14:21;;;;;;;30.50;13.73;;;;;;;;;;5032722;28;20899;-78
2024/02/29 15:16:47;;;;;;;32.00;13.60;;;;;;;;;;5032747;28;20811;-78
2024/02/29 15:19:13;;;;;;;30.60;13.60;;;;;;;;;;5034920;28;20398;-78
2024/02/29 15:21:39;;;;;;;32.27;14.30;;;;;;;;;;5035664;28;20417;-77
2024/02/29 15:24:05;;;;;;;28.77;14.10;;;;;;;;;;5041187;28;20407;-78
2024/02/29 15:26:34;;;;;;;34.03;13.50;;;;;;;;;;5036351;28;20864;-78
2024/02/29 15:29:00;;;;;;;29.83;14.73;;;;;;;;;;5036016;28;20424;-78
2024/02/29 15:31:26;;;;;;;24.80;12.73;;;;;;;;;;5033741;28;20437;-78
2024/02/29 15:33:52;;;;;;;27.10;12.30;;;;;;;;;;5034922;28;20918;-78
2024/02/29 15:36:18;;;;;;;26.73;11.17;;;;;;;;;;5033116;28;20536;-78
2024/02/29 15:38:45;;;;;;;26.30;11.73;;;;;;;;;;5035601;28;20896;-78
2024/02/29 15:41:10;;;;;;;24.30;12.23;;;;;;;;;;5038514;28;20428;-79
2024/02/29 15:43:36;;;;;;;32.90;14.07;;;;;;;;;;5039087;28;20455;-79
2024/02/29 15:46:02;;;;;;;31.10;12.53;;;;;;;;;;5046295;28;20491;-77
2024/02/29 15:48:33;;;;;;;31.60;14.00;;;;;;;;;;5039057;28;20421;-78
2024/02/29 15:50:59;;;;;;;31.13;15.00;;;;;;;;;;5039371;28;20421;-79
2024/02/29 15:53:25;;;;;;;30.13;13.33;;;;;;;;;;5039123;28;20447;-79
2024/02/29 15:55:52;;;;;;;30.10;12.97;;;;;;;;;;5038365;28;20508;-79
2024/02/29 15:58:18;;;;;;;28.60;13.20;;;;;;;;;;5038209;28;20420;-79
2024/02/29 16:00:44;;;;;;;29.80;13.60;;;;;;;;;;5039649;28;20944;-79
2024/02/29 16:03:10;;;;;;;30.07;14.60;;;;;;;;;;5035627;28;20814;-77
2024/02/29 16:05:36;;;;;;;29.90;14.40;;;;;;;;;;5036419;28;20958;-78
2024/02/29 16:08:02;;;;;;;37.33;15.60;;;;;;;;;;5034611;28;20425;-78
2024/02/29 16:10:29;;;;;;;31.33;15.97;;;;;;;;;;5035826;28;20490;-78
2024/02/29 16:12:55;;;;;;;34.57;15.90;;;;;;;;;;5036226;28;20472;-78
2024/02/29 16:15:21;;;;;;;33.90;15.70;;;;;;;;;;5037269;28;20420;-78
2024/02/29 16:17:47;;;;;;;39.63;16.53;;;;;;;;;;5035803;28;20470;-78
2024/02/29 16:20:13;;;;;;;36.90;17.20;;;;;;;;;;5033785;28;20417;-78
2024/02/29 16:22:39;;;;;;;39.23;17.60;;;;;;;;;;5035637;28;20405;-78
2024/02/29 16:25:05;;;;;;;39.50;17.10;;;;;;;;;;5035754;28;20405;-78
2024/02/29 16:27:32;;;;;;;37.80;17.50;;;;;;;;;;5035740;28;20417;-78
2024/02/29 16:29:57;;;;;;;35.63;18.40;;;;;;;;;;5033869;28;20453;-78
2024/02/29 16:32:23;;;;;;;47.17;20.40;;;;;;;;;;5035058;28;20531;-78
2024/02/29 16:34:49;;;;;;;49.57;20.90;;;;;;;;;;5034759;28;20424;-78
2024/02/29 16:37:15;;;;;;;42.03;19.00;;;;;;;;;;5034729;28;20539;-78
2024/02/29 16:39:41;;;;;;;47.70;21.67;;;;;;;;;;5033554;28;20475;-78
2024/02/29 16:42:09;;;;;;;43.10;20.37;;;;;;;;;;5033972;28;20524;-78
2024/02/29 16:44:35;;;;;;;45.23;18.70;;;;;;;;;;5034645;28;20497;-78
2024/02/29 16:47:01;;;;;;;44.73;20.20;;;;;;;;;;5033341;28;20418;-78
2024/02/29 16:49:27;;;;;;;38.30;18.20;;;;;;;;;;5034354;28;20627;-78
2024/02/29 16:51:53;;;;;;;48.37;19.87;;;;;;;;;;5035097;28;20461;-78
2024/02/29 16:54:20;;;;;;;43.60;20.77;;;;;;;;;;5033211;28;20436;-78
2024/02/29 16:56:46;;;;;;;47.87;20.37;;;;;;;;;;5034140;28;20457;-78
2024/02/29 16:59:12;;;;;;;46.83;19.33;;;;;;;;;;5034261;28;20764;-78
2024/02/29 17:01:40;;;;;;;43.30;18.77;;;;;;;;;;5034731;28;20618;-78
2024/02/29 17:04:07;;;;;;;46.17;19.83;;;;;;;;;;5033430;28;20423;-78
2024/02/29 17:06:35;;;;;;;46.70;19.03;;;;;;;;;;5034180;28;20851;-78
2024/02/29 17:09:01;;;;;;;43.53;19.43;;;;;;;;;;5035287;28;20467;-78
2024/02/29 17:11:27;;;;;;;51.20;20.67;;;;;;;;;;5039320;28;20433;-78
2024/02/29 17:13:53;;;;;;;52.60;22.83;;;;;;;;;;5035827;28;20413;-77
2024/02/29 17:16:19;;;;;;;50.27;19.43;;;;;;;;;;5034020;28;20488;-77
2024/02/29 17:18:46;;;;;;;42.80;18.37;;;;;;;;;;5034265;28;20951;-78
2024/02/29 17:21:14;;;;;;;45.83;18.97;;;;;;;;;;5033856;28;20429;-78
2024/02/29 17:23:40;;;;;;;46.97;19.43;;;;;;;;;;5032988;28;20500;-77
2024/02/29 17:26:06;;;;;;;51.63;21.57;;;;;;;;;;5033847;28;20445;-78
2024/02/29 17:28:32;;;;;;;51.30;19.77;;;;;;;;;;5033629;28;20416;-78
2024/02/29 17:30:59;;;;;;;47.97;20.70;;;;;;;;;;5031970;28;20495;-78
2024/02/29 17:33:25;;;;;;;52.13;20.97;;;;;;;;;;5033673;28;20420;-78
2024/02/29 17:35:50;;;;;;;43.40;18.97;;;;;;;;;;5027140;28;20414;-74
2024/02/29 17:38:16;;;;;;;47.00;19.67;;;;;;;;;;5014073;28;20465;-75
2024/02/29 17:40:42;;;;;;;48.43;20.23;;;;;;;;;;5029921;28;20522;-76
2024/02/29 17:43:08;;;;;;;48.10;20.13;;;;;;;;;;5031439;28;20413;-76
2024/02/29 17:45:35;;;;;;;39.10;19.50;;;;;;;;;;5027786;28;20537;-77
2024/02/29 17:48:01;;;;;;;45.30;19.20;;;;;;;;;;5022956;28;20484;-74
2024/02/29 17:50:27;;;;;;;48.90;20.20;;;;;;;;;;5033136;28;20421;-77
2024/02/29 17:52:53;;;;;;;52.47;20.90;;;;;;;;;;5030790;28;20754;-77
2024/02/29 17:55:19;;;;;;;61.63;20.90;;;;;;;;;;5027748;28;20448;-76
2024/02/29 17:57:48;;;;;;;46.00;19.73;;;;;;;;;;5041110;28;20503;-77
2024/02/29 18:00:14;;;;;;;49.30;20.30;;;;;;;;;;5044106;28;20421;-77
2024/02/29 18:02:41;;;;;;;52.73;22.13;;;;;;;;;;5042592;28;20452;-77
2024/02/29 18:05:07;;;;;;;44.33;19.10;;;;;;;;;;5037506;28;20424;-78
2024/02/29 18:07:33;;;;;;;48.83;19.50;;;;;;;;;;5027864;28;20422;-77
2024/02/29 18:09:59;;;;;;;51.60;19.43;;;;;;;;;;5035695;28;20576;-77
2024/02/29 18:12:25;;;;;;;45.03;19.60;;;;;;;;;;5042756;28;20449;-78
2024/02/29 18:14:51;;;;;;;40.30;17.93;;;;;;;;;;5041548;22;20500;-74
2024/02/29 18:17:17;;;;;;;51.27;20.03;;;;;;;;;;5032222;28;20548;-77
2024/02/29 18:19:43;;;;;;;42.60;17.80;;;;;;;;;;5030967;28;20494;-76
2024/02/29 18:22:09;;;;;;;50.53;20.83;;;;;;;;;;5032754;28;20500;-76
2024/02/29 18:24:38;;;;;;;48.90;19.80;;;;;;;;;;5016753;28;20524;-74
2024/02/29 18:27:04;;;;;;;52.67;21.70;;;;;;;;;;5012922;28;20422;-74
2024/02/29 18:29:30;;;;;;;48.03;18.83;;;;;;;;;;5012751;28;20924;-74
2024/02/29 18:31:56;;;;;;;47.90;18.47;;;;;;;;;;5012699;28;20500;-74
2024/02/29 18:34:22;;;;;;;46.73;19.20;;;;;;;;;;5010910;28;20852;-74
2024/02/29 18:36:48;;;;;;;57.97;22.20;;;;;;;;;;5009742;28;21022;-75
2024/02/29 18:39:14;;;;;;;43.57;19.50;;;;;;;;;;5012517;28;20417;-74
2024/02/29 18:41:40;;;;;;;51.43;21.57;;;;;;;;;;5011441;28;20797;-75
2024/02/29 18:44:08;;;;;;;57.17;21.40;;;;;;;;;;5013758;28;20433;-75
2024/02/29 18:46:35;;;;;;;52.83;21.43;;;;;;;;;;5013649;28;20422;-74
2024/02/29 18:49:01;;;;;;;51.60;19.93;;;;;;;;;;5014143;28;20418;-75
2024/02/29 18:51:28;;;;;;;46.83;22.30;;;;;;;;;;5012901;28;20421;-75
2024/02/29 18:53:54;;;;;;;50.47;20.53;;;;;;;;;;5012715;28;20438;-74
2024/02/29 18:56:20;;;;;;;46.37;19.87;;;;;;;;;;5019211;28;20457;-75
2024/02/29 18:58:46;;;;;;;49.00;20.53;;;;;;;;;;5027191;28;20426;-75
2024/02/29 19:01:12;;;;;;;51.80;20.90;;;;;;;;;;5018302;28;21045;-75
2024/02/29 19:03:38;;;;;;;52.33;22.53;;;;;;;;;;5014546;28;20528;-74
2024/02/29 19:06:05;;;;;;;50.83;21.17;;;;;;;;;;5012684;28;20426;-75
2024/02/29 19:08:31;;;;;;;51.03;21.63;;;;;;;;;;5012543;28;20414;-75
2024/02/29 19:10:59;;;;;;;49.33;21.90;;;;;;;;;;5013038;28;20429;-76
2024/02/29 19:13:25;;;;;;;54.47;18.63;;;;;;;;;;5015546;28;20937;-75
2024/02/29 19:15:51;;;;;;;46.80;20.00;;;;;;;;;;5016560;28;20493;-76
2024/02/29 19:18:18;;;;;;;53.57;22.80;;;;;;;;;;5009456;28;20559;-75
2024/02/29 19:20:44;;;;;;;46.97;20.53;;;;;;;;;;5017839;28;20480;-76
2024/02/29 19:23:13;;;;;;;49.90;20.50;;;;;;;;;;5017461;28;20418;-76
2024/02/29 19:25:40;;;;;;;52.10;22.00;;;;;;;;;;5012254;28;20422;-76
2024/02/29 19:28:06;;;;;;;52.80;19.77;;;;;;;;;;5018324;28;20478;-75
2024/02/29 19:30:32;;;;;;;44.40;20.20;;;;;;;;;;5018083;28;20429;-75
2024/02/29 19:32:58;;;;;;;53.80;20.73;;;;;;;;;;5017266;28;20419;-75
2024/02/29 19:35:25;;;;;;;48.57;19.60;;;;;;;;;;5017773;28;20432;-75
2024/02/29 19:37:51;;;;;;;48.47;19.70;;;;;;;;;;5017850;28;20545;-75
2024/02/29 19:40:17;;;;;;;52.80;21.57;;;;;;;;;;5015373;28;20453;-75
2024/02/29 19:42:43;;;;;;;53.13;21.60;;;;;;;;;;5032862;28;20397;-76
2024/02/29 19:45:09;;;;;;;46.50;19.50;;;;;;;;;;5039065;28;20433;-76
2024/02/29 19:47:37;;;;;;;53.87;20.77;;;;;;;;;;5038067;28;20650;-76
2024/02/29 19:50:03;;;;;;;58.00;20.17;;;;;;;;;;5042302;28;20402;-76
2024/02/29 19:52:29;;;;;;;51.30;20.50;;;;;;;;;;5035176;28;20484;-76
2024/02/29 19:54:55;;;;;;;52.17;21.93;;;;;;;;;;5030560;28;20885;-74
2024/02/29 19:57:21;;;;;;;51.27;23.03;;;;;;;;;;5016454;28;20458;-77
2024/02/29 19:59:47;;;;;;;56.33;20.97;;;;;;;;;;5016232;28;20420;-75
2024/02/29 20:02:13;;;;;;;57.87;21.80;;;;;;;;;;5015849;28;20417;-75
2024/02/29 20:04:39;;;;;;;52.80;21.40;;;;;;;;;;5016646;28;20484;-76
2024/02/29 20:07:05;;;;;;;52.63;21.63;;;;;;;;;;5016362;28;20410;-76
2024/02/29 20:09:31;;;;;;;55.43;21.00;;;;;;;;;;5016483;28;20418;-76
2024/02/29 20:11:57;;;;;;;58.37;22.10;;;;;;;;;;5018471;28;20814;-75